EZY1903 EHRD-EGPH
Flight info
| Callsign | EZY1903 |
|---|---|
| Flight time | 1h 7m |
| Altitude | 34000 |
| Route | TULIP DCT OTR DCT NEW DCT TLA |
| Aircraft | A320/M-SDE3FGHIRWY/LB1 |
Departure
| Time | 2026-05-04 15:41 |
|---|---|
| Airport | Rotterdam The Hague Airport (EHRD) |
Arrival
| Time | 2026-05-04 16:48 |
|---|---|
| Airport | Edinburgh Airport (EGPH) |
| Time | Latitude | Longitude | Altitude | Speed | Heading |
|---|---|---|---|---|---|
| 2026-05-04 15:17 | 51.95043 | 4.43558 | -15 ft | 0 kts | 327° |
| 2026-05-04 15:30 | 51.95043 | 4.43557 | 1 ft | 1 kts | 327° |
| 2026-05-04 15:31 | 51.95044 | 4.43557 | 1 ft | 0 kts | 327° |
| 2026-05-04 15:32 | 51.95043 | 4.43557 | 1 ft | 0 kts | 327° |
| 2026-05-04 15:34 | 51.95137 | 4.43547 | 1 ft | 13 kts | 327° |
| 2026-05-04 15:34 | 51.95216 | 4.43465 | 1 ft | 12 kts | 327° |
| 2026-05-04 15:34 | 51.95166 | 4.43208 | 1 ft | 14 kts | 236° |
| 2026-05-04 15:35 | 51.95121 | 4.43063 | 1 ft | 0 kts | 246° |
| 2026-05-04 15:39 | 51.95111 | 4.43025 | 1 ft | 8 kts | 248° |
| 2026-05-04 15:39 | 51.95177 | 4.42873 | 1 ft | 11 kts | 327° |
| 2026-05-04 15:40 | 51.95245 | 4.42904 | 2 ft | 4 kts | 58° |
| 2026-05-04 15:40 | 51.95261 | 4.42947 | 2 ft | 8 kts | 59° |
| 2026-05-04 15:40 | 51.95419 | 4.43340 | 0 ft | 80 kts | 56° |
| 2026-05-04 15:40 | 51.95836 | 4.44380 | 9 ft | 137 kts | 53° |
| 2026-05-04 15:41 | 51.96342 | 4.45660 | 676 ft | 134 kts | 54° |
| 2026-05-04 15:41 | 51.96825 | 4.46964 | 1315 ft | 136 kts | 57° |
| 2026-05-04 15:41 | 51.97331 | 4.48361 | 1705 ft | 154 kts | 58° |
| 2026-05-04 15:41 | 51.97915 | 4.49962 | 1973 ft | 175 kts | 54° |
| 2026-05-04 15:42 | 51.98842 | 4.51403 | 2241 ft | 196 kts | 29° |
| 2026-05-04 15:42 | 52.00183 | 4.52100 | 2535 ft | 214 kts | 2° |
| 2026-05-04 15:42 | 52.01678 | 4.51616 | 2876 ft | 236 kts | 332° |
| 2026-05-04 15:42 | 52.03162 | 4.50185 | 3367 ft | 256 kts | 330° |
| 2026-05-04 15:43 | 52.04752 | 4.48800 | 4198 ft | 262 kts | 332° |
| 2026-05-04 15:43 | 52.06395 | 4.47441 | 5080 ft | 267 kts | 332° |
| 2026-05-04 15:43 | 52.08069 | 4.46065 | 5965 ft | 271 kts | 332° |
| 2026-05-04 15:43 | 52.09762 | 4.44660 | 6795 ft | 275 kts | 332° |
| 2026-05-04 15:44 | 52.11456 | 4.43234 | 7614 ft | 279 kts | 332° |
| 2026-05-04 15:44 | 52.13189 | 4.41757 | 8444 ft | 283 kts | 331° |
| 2026-05-04 15:44 | 52.14943 | 4.40256 | 9273 ft | 287 kts | 331° |
| 2026-05-04 15:44 | 52.16729 | 4.38724 | 10063 ft | 291 kts | 331° |
| 2026-05-04 15:45 | 52.18569 | 4.37135 | 10490 ft | 310 kts | 330° |
| 2026-05-04 15:45 | 52.20520 | 4.35445 | 10758 ft | 331 kts | 331° |
| 2026-05-04 15:45 | 52.22588 | 4.33660 | 11372 ft | 338 kts | 330° |
| 2026-05-04 15:45 | 52.24680 | 4.31856 | 12126 ft | 342 kts | 330° |
| 2026-05-04 15:46 | 52.26799 | 4.30029 | 12897 ft | 344 kts | 330° |
| 2026-05-04 15:46 | 52.28934 | 4.28185 | 13653 ft | 347 kts | 330° |
| 2026-05-04 15:46 | 52.31061 | 4.26346 | 14317 ft | 350 kts | 330° |
| 2026-05-04 15:46 | 52.33228 | 4.24470 | 14952 ft | 354 kts | 330° |
| 2026-05-04 15:47 | 52.35413 | 4.22574 | 15578 ft | 357 kts | 330° |
| 2026-05-04 15:47 | 52.37621 | 4.20654 | 16215 ft | 361 kts | 330° |
| 2026-05-04 15:47 | 52.39852 | 4.18716 | 16833 ft | 364 kts | 330° |
| 2026-05-04 15:47 | 52.42073 | 4.16782 | 17433 ft | 368 kts | 330° |
| 2026-05-04 15:48 | 52.44356 | 4.14790 | 18040 ft | 372 kts | 330° |
| 2026-05-04 15:48 | 52.46650 | 4.12785 | 18578 ft | 375 kts | 330° |
| 2026-05-04 15:48 | 52.51288 | 4.08728 | 19674 ft | 380 kts | 329° |
| 2026-05-04 15:49 | 52.53636 | 4.06670 | 20219 ft | 382 kts | 329° |
| 2026-05-04 15:49 | 52.55985 | 4.04605 | 20772 ft | 384 kts | 329° |
| 2026-05-04 15:49 | 52.58325 | 4.02548 | 21290 ft | 386 kts | 329° |
| 2026-05-04 15:49 | 52.60705 | 4.00455 | 21824 ft | 388 kts | 328° |
| 2026-05-04 15:50 | 52.63100 | 3.98345 | 22363 ft | 390 kts | 328° |
| 2026-05-04 15:50 | 52.65498 | 3.96227 | 22873 ft | 392 kts | 328° |
| 2026-05-04 15:50 | 52.67884 | 3.94114 | 23374 ft | 394 kts | 328° |
| 2026-05-04 15:50 | 52.70308 | 3.91967 | 23815 ft | 396 kts | 328° |
| 2026-05-04 15:51 | 52.72752 | 3.89805 | 24192 ft | 400 kts | 327° |
| 2026-05-04 15:51 | 52.75212 | 3.87628 | 24554 ft | 403 kts | 327° |
| 2026-05-04 15:51 | 52.77692 | 3.85427 | 24901 ft | 406 kts | 327° |
| 2026-05-04 15:51 | 52.80196 | 3.83200 | 25260 ft | 409 kts | 327° |
| 2026-05-04 15:52 | 52.82718 | 3.80953 | 25613 ft | 413 kts | 327° |
| 2026-05-04 15:52 | 52.85260 | 3.78688 | 25954 ft | 416 kts | 327° |
| 2026-05-04 15:52 | 52.87779 | 3.76440 | 26294 ft | 419 kts | 327° |
| 2026-05-04 15:52 | 52.90352 | 3.74138 | 26642 ft | 421 kts | 327° |
| 2026-05-04 15:53 | 52.92947 | 3.71817 | 26990 ft | 424 kts | 327° |
| 2026-05-04 15:53 | 52.95560 | 3.69477 | 27328 ft | 427 kts | 327° |
| 2026-05-04 15:53 | 52.98190 | 3.67118 | 27671 ft | 430 kts | 327° |
| 2026-05-04 15:53 | 53.00824 | 3.64748 | 28005 ft | 433 kts | 327° |
| 2026-05-04 15:54 | 53.03486 | 3.62353 | 28353 ft | 435 kts | 327° |
| 2026-05-04 15:54 | 53.06131 | 3.59970 | 28679 ft | 438 kts | 327° |
| 2026-05-04 15:54 | 53.08821 | 3.57543 | 29003 ft | 440 kts | 327° |
| 2026-05-04 15:54 | 53.11523 | 3.55102 | 29324 ft | 443 kts | 327° |
| 2026-05-04 15:55 | 53.14248 | 3.52639 | 29638 ft | 445 kts | 327° |
| 2026-05-04 15:55 | 53.16984 | 3.50162 | 29938 ft | 448 kts | 327° |
| 2026-05-04 15:55 | 53.19724 | 3.47679 | 30209 ft | 450 kts | 327° |
| 2026-05-04 15:55 | 53.22465 | 3.45120 | 30471 ft | 449 kts | 323° |
| 2026-05-04 15:56 | 53.24950 | 3.42074 | 30733 ft | 446 kts | 315° |
| 2026-05-04 15:56 | 53.27138 | 3.38428 | 30998 ft | 443 kts | 306° |
| 2026-05-04 15:56 | 53.29090 | 3.34434 | 31271 ft | 443 kts | 306° |
| 2026-05-04 15:56 | 53.31038 | 3.30440 | 31642 ft | 442 kts | 306° |
| 2026-05-04 15:57 | 53.32987 | 3.26465 | 32010 ft | 441 kts | 306° |
| 2026-05-04 15:57 | 53.34929 | 3.22505 | 32362 ft | 440 kts | 306° |
| 2026-05-04 15:57 | 53.36868 | 3.18539 | 32717 ft | 439 kts | 306° |
| 2026-05-04 15:57 | 53.38771 | 3.14640 | 33060 ft | 438 kts | 306° |
| 2026-05-04 15:58 | 53.40701 | 3.10675 | 33406 ft | 438 kts | 306° |
| 2026-05-04 15:58 | 53.42626 | 3.06712 | 33751 ft | 437 kts | 306° |
| 2026-05-04 15:58 | 53.44545 | 3.02752 | 34004 ft | 437 kts | 307° |
| 2026-05-04 15:58 | 53.46453 | 2.98812 | 34032 ft | 431 kts | 307° |
| 2026-05-04 15:59 | 53.50201 | 2.91054 | 34045 ft | 429 kts | 307° |
| 2026-05-04 15:59 | 53.53962 | 2.83242 | 34048 ft | 429 kts | 307° |
| 2026-05-04 16:00 | 53.57701 | 2.75452 | 34052 ft | 430 kts | 307° |
| 2026-05-04 16:00 | 53.61468 | 2.67569 | 34052 ft | 431 kts | 307° |
| 2026-05-04 16:01 | 53.65204 | 2.59722 | 34026 ft | 431 kts | 307° |
| 2026-05-04 16:01 | 53.68966 | 2.51811 | 34039 ft | 432 kts | 308° |
| 2026-05-04 16:02 | 53.72707 | 2.43919 | 34045 ft | 432 kts | 308° |
| 2026-05-04 16:03 | 53.78343 | 2.31966 | 34028 ft | 433 kts | 308° |
| 2026-05-04 16:03 | 53.82075 | 2.24026 | 34015 ft | 434 kts | 308° |
| 2026-05-04 16:04 | 53.85837 | 2.16008 | 34024 ft | 434 kts | 308° |
| 2026-05-04 16:04 | 53.91483 | 2.03920 | 34033 ft | 436 kts | 308° |
| 2026-05-04 16:05 | 53.95214 | 1.95878 | 34036 ft | 437 kts | 308° |
| 2026-05-04 16:06 | 54.00870 | 1.83672 | 34037 ft | 437 kts | 309° |
| 2026-05-04 16:07 | 54.08366 | 1.67394 | 34060 ft | 438 kts | 308° |
| 2026-05-04 16:07 | 54.14028 | 1.55011 | 34405 ft | 444 kts | 308° |
| 2026-05-04 16:08 | 54.15901 | 1.50903 | 34673 ft | 444 kts | 308° |
| 2026-05-04 16:08 | 54.20766 | 1.37507 | 35470 ft | 442 kts | 296° |
| 2026-05-04 16:09 | 54.23482 | 1.28082 | 35981 ft | 441 kts | 296° |
| 2026-05-04 16:10 | 54.28876 | 1.09309 | 36058 ft | 440 kts | 295° |
| 2026-05-04 16:11 | 54.34218 | 0.90483 | 36056 ft | 439 kts | 295° |
| 2026-05-04 16:12 | 54.41718 | 0.63814 | 36052 ft | 438 kts | 295° |
| 2026-05-04 16:13 | 54.47419 | 0.43369 | 36048 ft | 438 kts | 295° |
| 2026-05-04 16:14 | 54.52211 | 0.26010 | 36052 ft | 437 kts | 294° |
| 2026-05-04 16:16 | 54.58742 | 0.02403 | 36062 ft | 437 kts | 295° |
| 2026-05-04 16:17 | 54.65400 | -0.21083 | 36050 ft | 435 kts | 294° |
| 2026-05-04 16:18 | 54.69333 | -0.35243 | 35893 ft | 435 kts | 295° |
| 2026-05-04 16:18 | 54.70630 | -0.39913 | 35632 ft | 435 kts | 294° |
| 2026-05-04 16:19 | 54.74549 | -0.54083 | 34894 ft | 435 kts | 294° |
| 2026-05-04 16:19 | 54.77159 | -0.63558 | 34417 ft | 435 kts | 294° |
| 2026-05-04 16:20 | 54.81024 | -0.77687 | 33650 ft | 430 kts | 294° |
| 2026-05-04 16:20 | 54.83571 | -0.87046 | 33107 ft | 426 kts | 295° |
| 2026-05-04 16:21 | 54.87307 | -1.00870 | 32312 ft | 420 kts | 295° |
| 2026-05-04 16:22 | 54.89776 | -1.10014 | 31805 ft | 415 kts | 295° |
| 2026-05-04 16:22 | 54.93282 | -1.23081 | 31063 ft | 409 kts | 295° |
| 2026-05-04 16:23 | 54.96857 | -1.36465 | 30320 ft | 403 kts | 294° |
| 2026-05-04 16:24 | 55.01476 | -1.53942 | 29254 ft | 394 kts | 294° |
| 2026-05-04 16:25 | 55.03762 | -1.62612 | 28697 ft | 391 kts | 294° |
| 2026-05-04 16:26 | 55.08230 | -1.79674 | 27600 ft | 381 kts | 294° |
| 2026-05-04 16:26 | 55.11463 | -1.92087 | 26305 ft | 366 kts | 294° |
| 2026-05-04 16:27 | 55.13829 | -1.99859 | 25344 ft | 367 kts | 299° |
| 2026-05-04 16:28 | 55.17656 | -2.11483 | 23757 ft | 366 kts | 299° |
| 2026-05-04 16:28 | 55.21425 | -2.22985 | 22152 ft | 361 kts | 299° |
| 2026-05-04 16:29 | 55.26375 | -2.38142 | 20135 ft | 355 kts | 299° |
| 2026-05-04 16:30 | 55.29934 | -2.49102 | 20023 ft | 342 kts | 298° |
| 2026-05-04 16:31 | 55.32270 | -2.56333 | 20023 ft | 342 kts | 298° |
| 2026-05-04 16:31 | 55.35797 | -2.67289 | 18776 ft | 348 kts | 299° |
| 2026-05-04 16:32 | 55.39368 | -2.78420 | 16023 ft | 344 kts | 299° |
| 2026-05-04 16:33 | 55.41678 | -2.85677 | 14417 ft | 335 kts | 299° |
| 2026-05-04 16:33 | 55.43923 | -2.92733 | 12768 ft | 328 kts | 299° |
| 2026-05-04 16:34 | 55.46448 | -2.98905 | 12116 ft | 294 kts | 321° |
| 2026-05-04 16:34 | 55.48182 | -3.00743 | 11835 ft | 291 kts | 336° |
| 2026-05-04 16:35 | 55.53927 | -3.03970 | 10559 ft | 289 kts | 341° |
| 2026-05-04 16:35 | 55.59583 | -3.07085 | 9141 ft | 280 kts | 341° |
| 2026-05-04 16:36 | 55.61441 | -3.08118 | 8604 ft | 278 kts | 341° |
| 2026-05-04 16:36 | 55.65112 | -3.10164 | 7718 ft | 275 kts | 341° |
| 2026-05-04 16:37 | 55.68654 | -3.12139 | 7063 ft | 254 kts | 341° |
| 2026-05-04 16:37 | 55.70304 | -3.13062 | 6914 ft | 243 kts | 341° |
| 2026-05-04 16:37 | 55.73693 | -3.13116 | 7282 ft | 244 kts | 18° |
| 2026-05-04 16:38 | 55.76862 | -3.10976 | 6582 ft | 240 kts | 20° |
| 2026-05-04 16:39 | 55.81548 | -3.07716 | 5505 ft | 237 kts | 19° |
| 2026-05-04 16:39 | 55.84545 | -3.05613 | 4789 ft | 225 kts | 20° |
| 2026-05-04 16:40 | 55.87363 | -3.03621 | 4276 ft | 211 kts | 20° |
| 2026-05-04 16:40 | 55.90066 | -3.01700 | 4002 ft | 207 kts | 19° |
| 2026-05-04 16:41 | 55.92724 | -2.99805 | 3998 ft | 207 kts | 20° |
| 2026-05-04 16:41 | 55.96863 | -2.99658 | 3279 ft | 209 kts | 336° |
| 2026-05-04 16:42 | 56.00661 | -3.02745 | 3015 ft | 185 kts | 335° |
| 2026-05-04 16:43 | 56.02961 | -3.04650 | 3000 ft | 180 kts | 330° |
| 2026-05-04 16:43 | 56.04111 | -3.08394 | 3001 ft | 181 kts | 274° |
| 2026-05-04 16:43 | 56.03912 | -3.10627 | 3003 ft | 184 kts | 250° |
| 2026-05-04 16:44 | 56.01315 | -3.18509 | 2435 ft | 178 kts | 240° |
| 2026-05-04 16:45 | 56.00097 | -3.22135 | 1973 ft | 165 kts | 239° |
| 2026-05-04 16:46 | 55.98419 | -3.27119 | 1313 ft | 144 kts | 239° |
| 2026-05-04 16:46 | 55.97415 | -3.30100 | 924 ft | 138 kts | 241° |
| 2026-05-04 16:47 | 55.96444 | -3.32972 | 541 ft | 132 kts | 241° |
| 2026-05-04 16:47 | 55.95510 | -3.35746 | 159 ft | 129 kts | 240° |
| 2026-05-04 16:48 | 55.94545 | -3.38597 | 112 ft | 49 kts | 238° |
| 2026-05-04 16:48 | 55.94417 | -3.38935 | 114 ft | 21 kts | 212° |
| 2026-05-04 16:49 | 55.94304 | -3.38727 | 115 ft | 13 kts | 62° |
| 2026-05-04 16:49 | 55.94430 | -3.38357 | 115 ft | 23 kts | 59° |
| 2026-05-04 16:50 | 55.94629 | -3.37775 | 115 ft | 31 kts | 58° |
| 2026-05-04 16:50 | 55.94805 | -3.37249 | 114 ft | 18 kts | 60° |
| 2026-05-04 16:51 | 55.94920 | -3.36900 | 115 ft | 14 kts | 71° |
| 2026-05-04 16:51 | 55.94868 | -3.36786 | 113 ft | 12 kts | 167° |
| 2026-05-04 16:51 | 55.94752 | -3.36713 | 114 ft | 7 kts | 102° |
| 2026-05-04 16:52 | 55.94752 | -3.36613 | 116 ft | 0 kts | 89° |